»·PEaware :: N4657 KSNA-L71

N4657 :: KSNA-L71

FLIGHT INFORMATION

Flight Status: Arrived
Operator: Privately registered:
United States
More flights under this callsign
Pilot: Daniel P. (20187)
Aircraft: PILATUS PC-12 EAGLE
(PC12)
More flights by this aircraft type
Origin: KSNA John Wayne-Orange Co
United States
Destination: L71 California City Mun
United States
More flights between these airports :: More routes between these airports
Route: +SLI V8 V363 POM V197 JERID
File this flight plan on PilotEdge
Remarks:
Altitude:
(Current/Filed)
90ft
Speed:
(Current/Filed)
200kts
Departed: 11-Oct-18 07:34 AM
Arrived: 11-Oct-18 08:12 AM
Distance/Time
Traveled:
89nm/0:37
Distance/Time
To Go:
Arrived

Flight Plot

Page will automatically refresh every two minutes.

Flight plan parsing failed; only flown route is shown


Map Options




Map Legend


Flown Route
Filed Route
Departure Airport
Arrival Airport
Navaid (VOR, NDB)
Fix

Horizontal Profiles

Position Reports

Time Latitude Longitude Heading Altitude Ground
Speed
11-Oct-18 06:59 33.671868 -117.873712 204 60ft 0kts
11-Oct-18 07:00 33.671868 -117.873712 204 60ft 0kts
11-Oct-18 07:01 33.671868 -117.873712 204 60ft 0kts
11-Oct-18 07:02 33.671868 -117.873712 204 60ft 0kts
11-Oct-18 07:03 33.671868 -117.873712 204 60ft 0kts
11-Oct-18 07:04 33.671868 -117.873712 204 60ft 0kts
11-Oct-18 07:05 33.671868 -117.873712 204 60ft 0kts
11-Oct-18 07:06 33.671868 -117.873712 204 60ft 0kts
11-Oct-18 07:07 33.671868 -117.873712 204 60ft 0kts
11-Oct-18 07:08 33.671868 -117.873712 204 60ft 0kts
11-Oct-18 07:09 33.671868 -117.873712 204 60ft 0kts
11-Oct-18 07:10 33.671868 -117.873712 204 60ft 0kts
11-Oct-18 07:11 33.671868 -117.873712 204 60ft 0kts
11-Oct-18 07:12 33.671868 -117.873712 204 60ft 0kts
11-Oct-18 07:13 33.671868 -117.873712 204 60ft 0kts
11-Oct-18 07:14 33.671868 -117.873712 204 60ft 0kts
11-Oct-18 07:15 33.671868 -117.873712 204 60ft 0kts
11-Oct-18 07:16 33.671868 -117.873712 204 60ft 0kts
11-Oct-18 07:17 33.671868 -117.873712 204 60ft 0kts
11-Oct-18 07:18 33.671868 -117.873712 204 60ft 0kts
11-Oct-18 07:19 33.671868 -117.873712 204 60ft 0kts
11-Oct-18 07:20 33.671868 -117.873712 204 60ft 0kts
11-Oct-18 07:21 33.671868 -117.873712 204 60ft 0kts
11-Oct-18 07:22 33.671868 -117.873712 204 60ft 0kts
11-Oct-18 07:23 33.671868 -117.873712 204 60ft 0kts
11-Oct-18 07:24 33.671868 -117.873712 204 60ft 0kts
11-Oct-18 07:25 33.671868 -117.873712 204 60ft 0kts
11-Oct-18 07:26 33.671868 -117.873712 204 60ft 0kts
11-Oct-18 07:27 33.671868 -117.873712 204 60ft 0kts
11-Oct-18 07:28 33.671868 -117.873712 204 60ft 0kts
11-Oct-18 07:29 33.672054 -117.872709 27 60ft 10kts
11-Oct-18 07:30 33.674385 -117.871147 27 60ft 14kts
11-Oct-18 07:31 33.677651 -117.869081 27 60ft 11kts
11-Oct-18 07:32 33.680700 -117.867330 26 60ft 13kts
11-Oct-18 07:33 33.681198 -117.866426 114 60ft 0kts
11-Oct-18 07:34 33.681198 -117.866426 114 60ft 0kts
11-Oct-18 07:35 33.681198 -117.866426 114 60ft 0kts
11-Oct-18 07:36 33.676146 -117.868563 206 60ft 103kts
11-Oct-18 07:37 33.646944 -117.879876 186 1873ft 113kts
11-Oct-18 07:38 33.609702 -117.885240 186 3720ft 163kts
11-Oct-18 07:39 33.581172 -117.917964 270 5516ft 174kts
11-Oct-18 07:40 33.582105 -117.978113 271 6864ft 202kts
11-Oct-18 07:41 33.601384 -118.043472 330 6863ft 237kts
11-Oct-18 07:42 33.667621 -118.051113 359 6865ft 244kts
11-Oct-18 07:43 33.734496 -118.050873 359 6864ft 239kts
11-Oct-18 07:44 33.789603 -118.026538 65 6894ft 234kts
11-Oct-18 07:45 33.809506 -117.954290 71 6892ft 228kts
11-Oct-18 07:46 33.827910 -117.883105 71 6892ft 226kts
11-Oct-18 07:47 33.846429 -117.811326 71 6993ft 225kts
11-Oct-18 07:48 33.896607 -117.783657 358 6994ft 221kts
11-Oct-18 07:49 33.957814 -117.784695 357 7003ft 220kts
11-Oct-18 07:50 34.018778 -117.785996 357 7797ft 224kts
11-Oct-18 07:51 34.080422 -117.787910 343 8727ft 222kts
11-Oct-18 07:52 34.134676 -117.815285 335 10097ft 226kts
11-Oct-18 07:53 34.193878 -117.844914 335 11109ft 238kts
11-Oct-18 07:54 34.255249 -117.875547 335 11977ft 244kts
11-Oct-18 07:55 34.319574 -117.907650 335 11994ft 256kts
11-Oct-18 07:56 34.385182 -117.940466 335 11993ft 259kts
11-Oct-18 07:57 34.449882 -117.972892 335 11985ft 259kts
11-Oct-18 07:58 34.515190 -118.005684 335 11984ft 259kts
11-Oct-18 07:59 34.579233 -118.037869 335 11983ft 245kts
11-Oct-18 08:00 34.639151 -118.073566 311 11994ft 238kts
11-Oct-18 08:01 34.683974 -118.132423 311 11984ft 238kts
11-Oct-18 08:02 34.728193 -118.189813 311 11885ft 225kts
11-Oct-18 08:03 34.770813 -118.245386 311 10827ft 233kts
11-Oct-18 08:04 34.815466 -118.303650 311 9724ft 234kts
11-Oct-18 08:05 34.858890 -118.359905 319 8617ft 227kts
11-Oct-18 08:06 34.909536 -118.331398 46 8025ft 215kts
11-Oct-18 08:07 34.949404 -118.279590 46 7664ft 213kts
11-Oct-18 08:08 34.991150 -118.225445 46 6777ft 234kts
11-Oct-18 08:09 35.036461 -118.166526 46 5883ft 242kts
11-Oct-18 08:10 35.082555 -118.106523 46 4985ft 243kts
11-Oct-18 08:11 35.123268 -118.046554 53 4282ft 225kts
11-Oct-18 08:12 35.152747 -117.992817 52 3370ft 140kts
11-Oct-18 08:13 35.160070 -117.991771 203 2759ft 84kts
11-Oct-18 08:14 35.151887 -118.013620 254 2419ft 28kts
11-Oct-18 08:15 35.149985 -118.016007 175 2427ft 9kts
11-Oct-18 08:16 35.149764 -118.016197 267 2427ft 0kts
11-Oct-18 08:17 35.149764 -118.016197 267 2427ft 0kts
11-Oct-18 08:18 35.149764 -118.016197 267 2427ft 0kts
11-Oct-18 08:19 35.149764 -118.016197 267 2427ft 0kts
11-Oct-18 08:20 35.149764 -118.016197 267 2427ft 0kts
11-Oct-18 08:21 35.149764 -118.016197 267 2427ft 0kts
11-Oct-18 08:22 35.149764 -118.016197 267 2427ft 0kts
11-Oct-18 08:23 35.149764 -118.016197 267 2427ft 0kts
11-Oct-18 08:24 35.149764 -118.016197 267 2427ft 0kts
11-Oct-18 08:25 35.149764 -118.016197 267 2427ft 0kts
11-Oct-18 08:26 35.149764 -118.016197 267 2427ft 0kts
11-Oct-18 08:27 35.149764 -118.016197 267 2427ft 0kts
11-Oct-18 08:28 35.149764 -118.016197 267 2427ft 0kts

Navigation Log

Ident Type
Flight plan parsing failed, navigation log unavailable